Flight Track Log - Related Links

Times and Time Zones

All times are in EDT time to prevent confusion due to time zone crossing. See the CSN6406 flight status page for this flight to view local times or setup timezone preferences in your user account.

Time Position Orientation Groundspeed Altitude Reporting Facility
EDT Latitude Longitude Course Direction KTS MPH feet Rate Location/Type
Wed 07:21:00 AM 38.8312 121.4784 199° South  Level Estimated
Wed 07:22:00 AM 38.6967 121.4185 199° South  Level Estimated
Wed 07:23:00 AM 38.5621 121.3588 199° South  Level Estimated
Wed 07:24:00 AM 38.4275 121.2993 199° South  Level Estimated
Wed 07:25:00 AM 38.2929 121.2400 199° South  Level Estimated
Wed 07:26:00 AM 38.1583 121.1809 199° South  Level Estimated
Wed 07:27:00 AM 38.0236 121.1221 199° South  Level Estimated
Wed 07:28:00 AM 37.8889 121.0635 199° South  Level Estimated
Wed 07:29:00 AM 37.7542 121.0051 199° South  Level Estimated
Wed 07:30:00 AM 37.6194 120.9469 199° South  Level Estimated
Wed 07:31:00 AM 37.4846 120.8889 199° South  Level Estimated
Wed 07:32:00 AM 37.3498 120.8311 199° South  Level Estimated
Wed 07:33:00 AM 37.2150 120.7735 199° South  Level Estimated
Wed 07:34:00 AM 37.0801 120.7161 199° South  Level Estimated
Wed 07:35:00 AM 36.9452 120.6590 199° South  Level Estimated
Wed 07:36:00 AM 36.8103 120.6020 199° South  Level Estimated
Wed 07:37:00 AM 36.6754 120.5453 199° South  Level Estimated
Wed 07:38:00 AM 36.5982 120.5129 199° South  Level Estimated
Wed 07:39:00 AM 36.5211 120.4807 199° South  Level Estimated
Wed 07:40:00 AM 36.4439 120.4484 199° South  Level Estimated
Wed 07:41:00 AM 36.3668 120.4163 199° South  Level Estimated
Wed 07:42:00 AM 36.2896 120.3842 199° South  Level Estimated
Wed 07:43:00 AM 36.2661 120.3744 199° South  Level Estimated
Wed 07:44:00 AM 36.2661 120.3744 238° Southwest  Level Estimated
Wed 07:45:00 AM 36.2661 120.3744 238° Southwest  Level Estimated
Wed 07:46:00 AM 36.2661 120.3744 238° Southwest  Level Estimated
Wed 07:47:00 AM 36.2661 120.3744 238° Southwest  Level Estimated
Wed 07:48:00 AM 36.2661 120.3744 238° Southwest  Level Estimated
Wed 07:49:00 AM 36.2661 120.3744 238° Southwest  Level Estimated
Wed 07:50:00 AM 36.2661 120.3744 238° Southwest  Level Estimated

Login

Don't have an account? Register now (free) for customized features, flight alerts, and more!